sensor_id;sensor_type;location;lat;lon;timestamp;P1;durP1;ratioP1;P2;durP2;ratioP2
70975;SDS011;58635;51.198;6.010;2023-03-23T00:00:53;5.57;;;2.40;;
70975;SDS011;58635;51.198;6.010;2023-03-23T00:03:19;4.78;;;2.50;;
70975;SDS011;58635;51.198;6.010;2023-03-23T00:05:46;4.50;;;2.40;;
70975;SDS011;58635;51.198;6.010;2023-03-23T00:08:19;6.55;;;2.72;;
70975;SDS011;58635;51.198;6.010;2023-03-23T00:10:50;5.88;;;2.55;;
70975;SDS011;58635;51.198;6.010;2023-03-23T00:13:24;5.05;;;2.83;;
70975;SDS011;58635;51.198;6.010;2023-03-23T00:15:50;5.63;;;2.50;;
70975;SDS011;58635;51.198;6.010;2023-03-23T00:18:22;6.82;;;2.75;;
70975;SDS011;58635;51.198;6.010;2023-03-23T00:20:57;5.95;;;3.00;;
70975;SDS011;58635;51.198;6.010;2023-03-23T00:23:24;6.75;;;2.63;;
70975;SDS011;58635;51.198;6.010;2023-03-23T00:25:54;6.03;;;2.40;;
70975;SDS011;58635;51.198;6.010;2023-03-23T00:28:24;6.80;;;2.63;;
70975;SDS011;58635;51.198;6.010;2023-03-23T00:31:09;5.25;;;2.70;;
70975;SDS011;58635;51.198;6.010;2023-03-23T00:33:35;6.50;;;2.72;;
70975;SDS011;58635;51.198;6.010;2023-03-23T00:36:08;6.05;;;2.58;;
70975;SDS011;58635;51.198;6.010;2023-03-23T00:38:35;4.95;;;2.50;;
70975;SDS011;58635;51.198;6.010;2023-03-23T00:41:01;4.93;;;2.47;;
70975;SDS011;58635;51.198;6.010;2023-03-23T00:43:29;5.95;;;3.17;;
70975;SDS011;58635;51.198;6.010;2023-03-23T00:45:55;4.85;;;2.42;;
70975;SDS011;58635;51.198;6.010;2023-03-23T00:48:22;6.40;;;2.75;;
70975;SDS011;58635;51.198;6.010;2023-03-23T00:50:49;6.03;;;2.67;;
70975;SDS011;58635;51.198;6.010;2023-03-23T00:53:16;4.78;;;2.40;;
70975;SDS011;58635;51.198;6.010;2023-03-23T00:55:42;3.80;;;2.45;;
70975;SDS011;58635;51.198;6.010;2023-03-23T00:58:09;5.97;;;2.90;;
70975;SDS011;58635;51.198;6.010;2023-03-23T01:00:36;5.00;;;2.58;;
70975;SDS011;58635;51.198;6.010;2023-03-23T01:03:01;6.65;;;2.80;;
70975;SDS011;58635;51.198;6.010;2023-03-23T01:05:27;5.28;;;2.63;;
70975;SDS011;58635;51.198;6.010;2023-03-23T01:07:56;5.13;;;2.65;;
70975;SDS011;58635;51.198;6.010;2023-03-23T01:10:25;3.72;;;2.45;;
70975;SDS011;58635;51.198;6.010;2023-03-23T01:12:53;5.88;;;2.90;;
70975;SDS011;58635;51.198;6.010;2023-03-23T01:15:18;6.45;;;2.70;;
70975;SDS011;58635;51.198;6.010;2023-03-23T01:17:45;7.60;;;2.70;;
70975;SDS011;58635;51.198;6.010;2023-03-23T01:20:11;4.28;;;2.45;;
70975;SDS011;58635;51.198;6.010;2023-03-23T01:22:39;4.50;;;2.90;;
70975;SDS011;58635;51.198;6.010;2023-03-23T01:25:05;5.05;;;2.40;;
70975;SDS011;58635;51.198;6.010;2023-03-23T01:27:31;5.38;;;2.85;;
70975;SDS011;58635;51.198;6.010;2023-03-23T01:29:57;6.35;;;2.83;;
70975;SDS011;58635;51.198;6.010;2023-03-23T01:32:22;6.07;;;2.67;;
70975;SDS011;58635;51.198;6.010;2023-03-23T01:34:47;4.93;;;2.65;;
70975;SDS011;58635;51.198;6.010;2023-03-23T01:37:13;6.35;;;2.72;;
70975;SDS011;58635;51.198;6.010;2023-03-23T01:39:41;5.53;;;2.38;;
70975;SDS011;58635;51.198;6.010;2023-03-23T01:42:08;4.45;;;2.72;;
70975;SDS011;58635;51.198;6.010;2023-03-23T01:46:59;4.32;;;2.60;;
70975;SDS011;58635;51.198;6.010;2023-03-23T01:49:29;4.60;;;2.60;;
70975;SDS011;58635;51.198;6.010;2023-03-23T01:52:10;3.42;;;2.25;;
70975;SDS011;58635;51.198;6.010;2023-03-23T01:54:42;6.53;;;2.80;;
70975;SDS011;58635;51.198;6.010;2023-03-23T01:57:13;5.45;;;2.80;;
70975;SDS011;58635;51.198;6.010;2023-03-23T01:59:42;4.65;;;2.53;;
70975;SDS011;58635;51.198;6.010;2023-03-23T02:02:10;5.00;;;2.88;;
70975;SDS011;58635;51.198;6.010;2023-03-23T02:04:36;6.70;;;3.00;;
70975;SDS011;58635;51.198;6.010;2023-03-23T02:07:02;3.58;;;2.60;;
70975;SDS011;58635;51.198;6.010;2023-03-23T02:09:29;5.15;;;2.70;;
70975;SDS011;58635;51.198;6.010;2023-03-23T02:11:55;4.15;;;2.53;;
70975;SDS011;58635;51.198;6.010;2023-03-23T02:14:21;5.15;;;2.90;;
70975;SDS011;58635;51.198;6.010;2023-03-23T02:17:00;5.22;;;2.95;;
70975;SDS011;58635;51.198;6.010;2023-03-23T02:31:29;6.05;;;2.88;;
70975;SDS011;58635;51.198;6.010;2023-03-23T02:39:04;6.10;;;2.92;;
70975;SDS011;58635;51.198;6.010;2023-03-23T02:41:40;3.97;;;2.57;;
70975;SDS011;58635;51.198;6.010;2023-03-23T02:44:10;4.32;;;2.60;;
70975;SDS011;58635;51.198;6.010;2023-03-23T02:46:38;4.45;;;2.50;;
70975;SDS011;58635;51.198;6.010;2023-03-23T02:49:05;6.20;;;2.90;;
70975;SDS011;58635;51.198;6.010;2023-03-23T02:51:33;4.75;;;2.63;;
70975;SDS011;58635;51.198;6.010;2023-03-23T02:54:00;5.65;;;3.20;;
70975;SDS011;58635;51.198;6.010;2023-03-23T02:56:29;6.70;;;3.00;;
70975;SDS011;58635;51.198;6.010;2023-03-23T02:58:58;3.97;;;2.20;;
70975;SDS011;58635;51.198;6.010;2023-03-23T03:03:53;6.38;;;2.70;;
70975;SDS011;58635;51.198;6.010;2023-03-23T03:07:23;3.75;;;2.38;;
70975;SDS011;58635;51.198;6.010;2023-03-23T03:09:49;4.25;;;2.53;;
70975;SDS011;58635;51.198;6.010;2023-03-23T03:14:59;4.47;;;2.40;;
70975;SDS011;58635;51.198;6.010;2023-03-23T03:17:34;4.53;;;2.50;;
70975;SDS011;58635;51.198;6.010;2023-03-23T03:20:05;3.90;;;2.25;;
70975;SDS011;58635;51.198;6.010;2023-03-23T03:22:36;3.50;;;2.25;;
70975;SDS011;58635;51.198;6.010;2023-03-23T03:25:07;4.22;;;2.17;;
70975;SDS011;58635;51.198;6.010;2023-03-23T03:27:34;4.75;;;2.50;;
70975;SDS011;58635;51.198;6.010;2023-03-23T03:30:00;4.30;;;2.40;;
70975;SDS011;58635;51.198;6.010;2023-03-23T03:32:35;4.68;;;2.40;;
70975;SDS011;58635;51.198;6.010;2023-03-23T03:35:05;4.95;;;2.60;;
70975;SDS011;58635;51.198;6.010;2023-03-23T03:37:35;3.83;;;2.38;;
70975;SDS011;58635;51.198;6.010;2023-03-23T03:42:39;4.07;;;2.13;;
70975;SDS011;58635;51.198;6.010;2023-03-23T03:45:07;4.60;;;2.42;;
70975;SDS011;58635;51.198;6.010;2023-03-23T03:47:34;3.60;;;2.10;;
70975;SDS011;58635;51.198;6.010;2023-03-23T03:50:00;3.30;;;2.40;;
70975;SDS011;58635;51.198;6.010;2023-03-23T03:52:25;4.72;;;2.10;;
70975;SDS011;58635;51.198;6.010;2023-03-23T03:54:52;5.65;;;2.50;;
70975;SDS011;58635;51.198;6.010;2023-03-23T03:57:18;5.25;;;2.50;;
70975;SDS011;58635;51.198;6.010;2023-03-23T03:59:44;4.43;;;2.38;;
70975;SDS011;58635;51.198;6.010;2023-03-23T04:02:10;5.47;;;2.55;;
70975;SDS011;58635;51.198;6.010;2023-03-23T04:04:40;3.25;;;2.03;;
70975;SDS011;58635;51.198;6.010;2023-03-23T04:07:06;4.28;;;2.50;;
70975;SDS011;58635;51.198;6.010;2023-03-23T04:09:32;5.13;;;2.25;;
70975;SDS011;58635;51.198;6.010;2023-03-23T04:11:57;3.75;;;2.40;;
70975;SDS011;58635;51.198;6.010;2023-03-23T04:14:23;4.35;;;2.45;;
70975;SDS011;58635;51.198;6.010;2023-03-23T04:16:48;3.78;;;2.35;;
70975;SDS011;58635;51.198;6.010;2023-03-23T04:19:17;3.97;;;2.38;;
70975;SDS011;58635;51.198;6.010;2023-03-23T04:21:43;3.47;;;2.25;;
70975;SDS011;58635;51.198;6.010;2023-03-23T04:24:13;4.03;;;2.17;;
70975;SDS011;58635;51.198;6.010;2023-03-23T04:26:39;5.03;;;2.40;;
70975;SDS011;58635;51.198;6.010;2023-03-23T04:29:07;4.07;;;2.47;;
70975;SDS011;58635;51.198;6.010;2023-03-23T04:31:38;4.20;;;2.45;;
70975;SDS011;58635;51.198;6.010;2023-03-23T04:34:04;4.05;;;2.28;;
70975;SDS011;58635;51.198;6.010;2023-03-23T04:36:29;3.47;;;2.30;;
70975;SDS011;58635;51.198;6.010;2023-03-23T04:38:55;4.78;;;2.38;;
70975;SDS011;58635;51.198;6.010;2023-03-23T04:41:21;3.72;;;2.20;;
70975;SDS011;58635;51.198;6.010;2023-03-23T04:43:48;3.47;;;1.92;;
70975;SDS011;58635;51.198;6.010;2023-03-23T04:46:17;4.85;;;2.30;;
70975;SDS011;58635;51.198;6.010;2023-03-23T04:48:44;3.97;;;2.30;;
70975;SDS011;58635;51.198;6.010;2023-03-23T04:51:10;4.40;;;2.33;;
70975;SDS011;58635;51.198;6.010;2023-03-23T04:53:37;3.97;;;2.33;;
70975;SDS011;58635;51.198;6.010;2023-03-23T04:56:02;4.70;;;2.25;;
70975;SDS011;58635;51.198;6.010;2023-03-23T04:58:28;4.18;;;2.20;;
70975;SDS011;58635;51.198;6.010;2023-03-23T05:00:54;4.70;;;2.08;;
70975;SDS011;58635;51.198;6.010;2023-03-23T05:03:20;5.07;;;2.13;;
70975;SDS011;58635;51.198;6.010;2023-03-23T05:05:46;3.47;;;1.90;;
70975;SDS011;58635;51.198;6.010;2023-03-23T05:08:16;3.83;;;1.90;;
70975;SDS011;58635;51.198;6.010;2023-03-23T05:10:53;5.15;;;2.13;;
70975;SDS011;58635;51.198;6.010;2023-03-23T05:13:20;2.70;;;1.80;;
70975;SDS011;58635;51.198;6.010;2023-03-23T05:15:46;4.95;;;1.90;;
70975;SDS011;58635;51.198;6.010;2023-03-23T05:18:12;3.67;;;1.50;;
70975;SDS011;58635;51.198;6.010;2023-03-23T05:20:38;3.88;;;1.60;;
70975;SDS011;58635;51.198;6.010;2023-03-23T05:23:04;5.10;;;1.98;;
70975;SDS011;58635;51.198;6.010;2023-03-23T05:25:30;3.50;;;1.73;;
70975;SDS011;58635;51.198;6.010;2023-03-23T05:27:57;6.40;;;1.83;;
70975;SDS011;58635;51.198;6.010;2023-03-23T05:30:24;4.22;;;1.55;;
70975;SDS011;58635;51.198;6.010;2023-03-23T05:32:49;2.95;;;1.45;;
70975;SDS011;58635;51.198;6.010;2023-03-23T05:35:16;2.83;;;1.45;;
70975;SDS011;58635;51.198;6.010;2023-03-23T05:37:42;4.40;;;1.77;;
70975;SDS011;58635;51.198;6.010;2023-03-23T05:40:08;4.95;;;1.67;;
70975;SDS011;58635;51.198;6.010;2023-03-23T05:42:36;4.40;;;2.03;;
70975;SDS011;58635;51.198;6.010;2023-03-23T05:45:03;5.07;;;1.88;;
70975;SDS011;58635;51.198;6.010;2023-03-23T05:47:29;6.43;;;1.85;;
70975;SDS011;58635;51.198;6.010;2023-03-23T05:49:55;3.83;;;1.40;;
70975;SDS011;58635;51.198;6.010;2023-03-23T05:52:21;4.20;;;1.40;;
70975;SDS011;58635;51.198;6.010;2023-03-23T05:54:48;4.38;;;1.60;;
70975;SDS011;58635;51.198;6.010;2023-03-23T05:57:14;4.78;;;1.60;;
70975;SDS011;58635;51.198;6.010;2023-03-23T05:59:40;3.70;;;1.60;;
70975;SDS011;58635;51.198;6.010;2023-03-23T06:02:06;6.40;;;1.60;;
70975;SDS011;58635;51.198;6.010;2023-03-23T06:04:31;7.35;;;1.77;;
70975;SDS011;58635;51.198;6.010;2023-03-23T06:06:58;7.60;;;1.88;;
70975;SDS011;58635;51.198;6.010;2023-03-23T06:09:25;3.67;;;1.73;;
70975;SDS011;58635;51.198;6.010;2023-03-23T06:11:51;6.28;;;1.60;;
70975;SDS011;58635;51.198;6.010;2023-03-23T06:14:16;4.18;;;1.65;;
70975;SDS011;58635;51.198;6.010;2023-03-23T06:16:42;4.35;;;1.55;;
70975;SDS011;58635;51.198;6.010;2023-03-23T06:19:08;6.03;;;1.55;;
70975;SDS011;58635;51.198;6.010;2023-03-23T06:21:33;5.75;;;1.48;;
70975;SDS011;58635;51.198;6.010;2023-03-23T06:23:59;3.35;;;1.40;;
70975;SDS011;58635;51.198;6.010;2023-03-23T06:26:27;5.35;;;1.42;;
70975;SDS011;58635;51.198;6.010;2023-03-23T06:28:58;5.90;;;1.65;;
70975;SDS011;58635;51.198;6.010;2023-03-23T06:31:24;6.85;;;1.67;;
70975;SDS011;58635;51.198;6.010;2023-03-23T06:33:51;4.78;;;1.50;;
70975;SDS011;58635;51.198;6.010;2023-03-23T06:36:17;4.22;;;1.55;;
70975;SDS011;58635;51.198;6.010;2023-03-23T06:38:43;4.78;;;1.42;;
70975;SDS011;58635;51.198;6.010;2023-03-23T06:41:10;7.32;;;1.55;;
70975;SDS011;58635;51.198;6.010;2023-03-23T06:43:36;4.85;;;1.70;;
70975;SDS011;58635;51.198;6.010;2023-03-23T06:46:04;5.20;;;1.50;;
70975;SDS011;58635;51.198;6.010;2023-03-23T06:48:31;3.25;;;1.35;;
70975;SDS011;58635;51.198;6.010;2023-03-23T06:50:57;5.22;;;1.60;;
70975;SDS011;58635;51.198;6.010;2023-03-23T06:53:23;6.28;;;1.50;;
70975;SDS011;58635;51.198;6.010;2023-03-23T06:55:48;4.28;;;1.60;;
70975;SDS011;58635;51.198;6.010;2023-03-23T06:58:13;4.35;;;1.80;;
70975;SDS011;58635;51.198;6.010;2023-03-23T07:00:39;5.57;;;1.73;;
70975;SDS011;58635;51.198;6.010;2023-03-23T07:03:05;5.63;;;1.90;;
70975;SDS011;58635;51.198;6.010;2023-03-23T07:05:32;5.78;;;2.20;;
70975;SDS011;58635;51.198;6.010;2023-03-23T07:07:59;6.80;;;1.60;;
70975;SDS011;58635;51.198;6.010;2023-03-23T07:10:24;4.85;;;1.70;;
70975;SDS011;58635;51.198;6.010;2023-03-23T07:12:50;4.97;;;1.55;;
70975;SDS011;58635;51.198;6.010;2023-03-23T07:15:15;4.05;;;1.55;;
70975;SDS011;58635;51.198;6.010;2023-03-23T07:17:41;4.97;;;1.80;;
70975;SDS011;58635;51.198;6.010;2023-03-23T07:20:06;4.53;;;1.58;;
70975;SDS011;58635;51.198;6.010;2023-03-23T07:22:32;3.70;;;1.55;;
70975;SDS011;58635;51.198;6.010;2023-03-23T07:24:58;3.70;;;1.50;;
70975;SDS011;58635;51.198;6.010;2023-03-23T07:27:24;6.32;;;1.70;;
70975;SDS011;58635;51.198;6.010;2023-03-23T07:29:50;3.40;;;1.60;;
70975;SDS011;58635;51.198;6.010;2023-03-23T07:32:15;4.47;;;1.50;;
70975;SDS011;58635;51.198;6.010;2023-03-23T07:34:42;4.82;;;1.70;;
70975;SDS011;58635;51.198;6.010;2023-03-23T07:37:07;5.20;;;2.28;;
70975;SDS011;58635;51.198;6.010;2023-03-23T07:39:33;5.00;;;1.90;;
70975;SDS011;58635;51.198;6.010;2023-03-23T07:41:59;5.57;;;1.73;;
70975;SDS011;58635;51.198;6.010;2023-03-23T07:44:24;4.45;;;1.55;;
70975;SDS011;58635;51.198;6.010;2023-03-23T07:46:50;6.68;;;1.70;;
70975;SDS011;58635;51.198;6.010;2023-03-23T07:49:16;6.95;;;1.60;;
70975;SDS011;58635;51.198;6.010;2023-03-23T07:51:42;5.20;;;1.63;;
70975;SDS011;58635;51.198;6.010;2023-03-23T07:54:08;5.07;;;1.40;;
70975;SDS011;58635;51.198;6.010;2023-03-23T07:56:34;4.82;;;1.50;;
70975;SDS011;58635;51.198;6.010;2023-03-23T07:59:00;4.05;;;1.33;;
70975;SDS011;58635;51.198;6.010;2023-03-23T08:01:27;4.57;;;1.48;;
70975;SDS011;58635;51.198;6.010;2023-03-23T08:03:53;5.15;;;1.40;;
70975;SDS011;58635;51.198;6.010;2023-03-23T08:06:21;5.38;;;1.25;;
70975;SDS011;58635;51.198;6.010;2023-03-23T08:08:48;5.45;;;2.00;;
70975;SDS011;58635;51.198;6.010;2023-03-23T08:11:15;4.65;;;1.60;;
70975;SDS011;58635;51.198;6.010;2023-03-23T08:13:41;4.32;;;1.65;;
70975;SDS011;58635;51.198;6.010;2023-03-23T08:16:07;5.63;;;1.88;;
70975;SDS011;58635;51.198;6.010;2023-03-23T08:18:34;4.63;;;1.90;;
70975;SDS011;58635;51.198;6.010;2023-03-23T08:21:02;6.45;;;1.50;;
70975;SDS011;58635;51.198;6.010;2023-03-23T08:23:29;6.40;;;1.60;;
70975;SDS011;58635;51.198;6.010;2023-03-23T08:25:56;4.53;;;1.30;;
70975;SDS011;58635;51.198;6.010;2023-03-23T08:28:21;5.20;;;1.58;;
70975;SDS011;58635;51.198;6.010;2023-03-23T08:30:47;6.05;;;1.58;;
70975;SDS011;58635;51.198;6.010;2023-03-23T08:33:13;3.92;;;1.50;;
70975;SDS011;58635;51.198;6.010;2023-03-23T08:35:39;5.95;;;1.45;;
70975;SDS011;58635;51.198;6.010;2023-03-23T08:38:04;5.32;;;1.25;;
70975;SDS011;58635;51.198;6.010;2023-03-23T08:40:30;4.22;;;1.45;;
70975;SDS011;58635;51.198;6.010;2023-03-23T08:42:57;5.63;;;1.40;;
70975;SDS011;58635;51.198;6.010;2023-03-23T08:45:23;6.53;;;2.30;;
70975;SDS011;58635;51.198;6.010;2023-03-23T08:47:50;5.63;;;1.98;;
70975;SDS011;58635;51.198;6.010;2023-03-23T08:50:18;5.88;;;1.52;;
70975;SDS011;58635;51.198;6.010;2023-03-23T08:52:48;5.85;;;1.38;;
70975;SDS011;58635;51.198;6.010;2023-03-23T08:55:14;5.13;;;1.60;;
70975;SDS011;58635;51.198;6.010;2023-03-23T08:57:42;5.22;;;1.40;;
70975;SDS011;58635;51.198;6.010;2023-03-23T09:00:10;4.20;;;1.40;;
70975;SDS011;58635;51.198;6.010;2023-03-23T09:02:42;2.97;;;0.90;;
70975;SDS011;58635;51.198;6.010;2023-03-23T09:05:10;2.38;;;0.80;;
70975;SDS011;58635;51.198;6.010;2023-03-23T09:07:37;1.02;;;0.70;;
70975;SDS011;58635;51.198;6.010;2023-03-23T09:10:03;1.80;;;0.63;;
70975;SDS011;58635;51.198;6.010;2023-03-23T09:12:29;2.78;;;0.65;;
70975;SDS011;58635;51.198;6.010;2023-03-23T09:14:55;2.13;;;0.68;;
70975;SDS011;58635;51.198;6.010;2023-03-23T09:17:20;2.70;;;0.70;;
70975;SDS011;58635;51.198;6.010;2023-03-23T09:19:46;2.63;;;0.65;;
70975;SDS011;58635;51.198;6.010;2023-03-23T09:22:11;2.28;;;0.70;;
70975;SDS011;58635;51.198;6.010;2023-03-23T09:24:36;3.78;;;0.70;;
70975;SDS011;58635;51.198;6.010;2023-03-23T09:27:02;2.53;;;0.70;;
70975;SDS011;58635;51.198;6.010;2023-03-23T09:29:29;1.77;;;0.70;;
70975;SDS011;58635;51.198;6.010;2023-03-23T09:31:55;2.63;;;0.80;;
70975;SDS011;58635;51.198;6.010;2023-03-23T09:34:21;1.85;;;0.70;;
70975;SDS011;58635;51.198;6.010;2023-03-23T09:36:47;1.42;;;0.70;;
70975;SDS011;58635;51.198;6.010;2023-03-23T09:39:14;2.83;;;0.77;;
70975;SDS011;58635;51.198;6.010;2023-03-23T09:41:57;3.40;;;0.77;;
70975;SDS011;58635;51.198;6.010;2023-03-23T09:47:37;1.52;;;0.70;;
70975;SDS011;58635;51.198;6.010;2023-03-23T09:50:14;3.10;;;1.27;;
70975;SDS011;58635;51.198;6.010;2023-03-23T09:55:27;1.70;;;0.70;;
70975;SDS011;58635;51.198;6.010;2023-03-23T10:00:29;2.65;;;0.70;;
70975;SDS011;58635;51.198;6.010;2023-03-23T10:03:06;3.10;;;0.80;;
70975;SDS011;58635;51.198;6.010;2023-03-23T10:05:50;1.98;;;0.75;;
70975;SDS011;58635;51.198;6.010;2023-03-23T10:08:20;2.47;;;0.65;;
70975;SDS011;58635;51.198;6.010;2023-03-23T10:13:46;2.13;;;0.70;;
70975;SDS011;58635;51.198;6.010;2023-03-23T10:16:42;2.67;;;0.68;;
70975;SDS011;58635;51.198;6.010;2023-03-23T10:19:34;2.88;;;0.80;;
70975;SDS011;58635;51.198;6.010;2023-03-23T10:22:11;2.83;;;0.90;;
70975;SDS011;58635;51.198;6.010;2023-03-23T10:27:26;2.28;;;0.93;;
70975;SDS011;58635;51.198;6.010;2023-03-23T10:30:26;2.67;;;1.00;;
70975;SDS011;58635;51.198;6.010;2023-03-23T10:33:01;4.90;;;0.90;;
70975;SDS011;58635;51.198;6.010;2023-03-23T10:35:57;2.97;;;1.00;;
70975;SDS011;58635;51.198;6.010;2023-03-23T10:41:06;3.88;;;1.90;;
70975;SDS011;58635;51.198;6.010;2023-03-23T10:43:37;4.03;;;1.40;;
70975;SDS011;58635;51.198;6.010;2023-03-23T10:46:21;2.78;;;0.90;;
70975;SDS011;58635;51.198;6.010;2023-03-23T10:49:00;2.22;;;0.77;;
70975;SDS011;58635;51.198;6.010;2023-03-23T10:51:32;3.10;;;0.85;;
70975;SDS011;58635;51.198;6.010;2023-03-23T10:54:02;3.28;;;0.88;;
70975;SDS011;58635;51.198;6.010;2023-03-23T10:56:39;1.83;;;0.82;;
70975;SDS011;58635;51.198;6.010;2023-03-23T10:59:15;2.13;;;0.93;;
70975;SDS011;58635;51.198;6.010;2023-03-23T11:01:52;1.83;;;0.98;;
70975;SDS011;58635;51.198;6.010;2023-03-23T11:04:20;1.27;;;0.70;;
70975;SDS011;58635;51.198;6.010;2023-03-23T11:06:48;2.15;;;1.00;;
70975;SDS011;58635;51.198;6.010;2023-03-23T11:09:20;2.60;;;1.00;;
70975;SDS011;58635;51.198;6.010;2023-03-23T11:11:57;2.92;;;0.90;;
70975;SDS011;58635;51.198;6.010;2023-03-23T11:14:34;3.72;;;0.85;;
70975;SDS011;58635;51.198;6.010;2023-03-23T11:17:04;1.33;;;0.88;;
70975;SDS011;58635;51.198;6.010;2023-03-23T11:19:32;4.18;;;1.15;;
70975;SDS011;58635;51.198;6.010;2023-03-23T11:24:33;3.08;;;1.00;;
70975;SDS011;58635;51.198;6.010;2023-03-23T11:27:00;3.05;;;1.55;;
70975;SDS011;58635;51.198;6.010;2023-03-23T11:29:28;3.13;;;1.48;;
70975;SDS011;58635;51.198;6.010;2023-03-23T11:34:25;3.20;;;1.50;;
70975;SDS011;58635;51.198;6.010;2023-03-23T11:37:00;3.50;;;1.20;;
70975;SDS011;58635;51.198;6.010;2023-03-23T11:39:45;1.75;;;0.98;;
70975;SDS011;58635;51.198;6.010;2023-03-23T11:45:13;3.72;;;1.20;;
70975;SDS011;58635;51.198;6.010;2023-03-23T11:47:40;5.47;;;1.30;;
70975;SDS011;58635;51.198;6.010;2023-03-23T11:58:16;3.03;;;1.58;;
70975;SDS011;58635;51.198;6.010;2023-03-23T12:00:49;3.55;;;1.67;;
70975;SDS011;58635;51.198;6.010;2023-03-23T12:03:21;4.07;;;1.60;;
70975;SDS011;58635;51.198;6.010;2023-03-23T12:11:56;2.88;;;1.38;;
70975;SDS011;58635;51.198;6.010;2023-03-23T12:14:03;2.22;;;1.30;;
70975;SDS011;58635;51.198;6.010;2023-03-23T12:16:44;4.28;;;1.45;;
70975;SDS011;58635;51.198;6.010;2023-03-23T12:19:36;2.95;;;1.10;;
70975;SDS011;58635;51.198;6.010;2023-03-23T12:28:21;4.25;;;1.35;;
70975;SDS011;58635;51.198;6.010;2023-03-23T12:30:49;2.70;;;1.30;;
70975;SDS011;58635;51.198;6.010;2023-03-23T12:33:45;4.20;;;1.77;;
70975;SDS011;58635;51.198;6.010;2023-03-23T12:47:39;5.18;;;1.60;;
70975;SDS011;58635;51.198;6.010;2023-03-23T12:52:56;4.18;;;1.88;;
70975;SDS011;58635;51.198;6.010;2023-03-23T12:55:49;4.43;;;1.70;;
70975;SDS011;58635;51.198;6.010;2023-03-23T12:58:31;5.03;;;1.83;;
70975;SDS011;58635;51.198;6.010;2023-03-23T13:01:07;3.85;;;1.67;;
70975;SDS011;58635;51.198;6.010;2023-03-23T13:11:34;5.35;;;1.63;;
70975;SDS011;58635;51.198;6.010;2023-03-23T13:17:24;2.40;;;1.70;;
70975;SDS011;58635;51.198;6.010;2023-03-23T13:22:49;2.85;;;1.48;;
70975;SDS011;58635;51.198;6.010;2023-03-23T13:28:01;3.97;;;1.65;;
70975;SDS011;58635;51.198;6.010;2023-03-23T13:30:28;3.92;;;1.85;;
70975;SDS011;58635;51.198;6.010;2023-03-23T13:33:04;3.03;;;1.70;;
70975;SDS011;58635;51.198;6.010;2023-03-23T13:35:35;5.82;;;2.05;;
70975;SDS011;58635;51.198;6.010;2023-03-23T13:38:11;3.22;;;1.90;;
70975;SDS011;58635;51.198;6.010;2023-03-23T13:40:43;6.00;;;1.83;;
70975;SDS011;58635;51.198;6.010;2023-03-23T13:43:10;6.40;;;1.80;;
70975;SDS011;58635;51.198;6.010;2023-03-23T13:45:42;5.38;;;1.80;;
70975;SDS011;58635;51.198;6.010;2023-03-23T13:53:22;8.63;;;1.77;;
70975;SDS011;58635;51.198;6.010;2023-03-23T13:58:43;6.18;;;1.52;;
70975;SDS011;58635;51.198;6.010;2023-03-23T14:01:11;7.32;;;1.60;;
70975;SDS011;58635;51.198;6.010;2023-03-23T14:03:41;5.15;;;1.45;;
70975;SDS011;58635;51.198;6.010;2023-03-23T14:06:14;4.53;;;1.63;;
70975;SDS011;58635;51.198;6.010;2023-03-23T14:08:44;4.20;;;1.58;;
70975;SDS011;58635;51.198;6.010;2023-03-23T14:11:13;3.22;;;1.60;;
70975;SDS011;58635;51.198;6.010;2023-03-23T14:19:00;5.85;;;1.75;;
70975;SDS011;58635;51.198;6.010;2023-03-23T14:21:35;3.63;;;1.60;;
70975;SDS011;58635;51.198;6.010;2023-03-23T14:24:20;4.40;;;1.70;;
70975;SDS011;58635;51.198;6.010;2023-03-23T14:26:48;3.50;;;1.60;;
70975;SDS011;58635;51.198;6.010;2023-03-23T14:29:17;4.05;;;1.55;;
70975;SDS011;58635;51.198;6.010;2023-03-23T14:31:43;6.50;;;1.80;;
70975;SDS011;58635;51.198;6.010;2023-03-23T14:34:16;5.80;;;1.73;;
70975;SDS011;58635;51.198;6.010;2023-03-23T14:36:44;5.75;;;2.05;;
70975;SDS011;58635;51.198;6.010;2023-03-23T14:41:46;6.68;;;1.70;;
70975;SDS011;58635;51.198;6.010;2023-03-23T14:44:17;4.90;;;1.70;;
70975;SDS011;58635;51.198;6.010;2023-03-23T14:46:47;8.50;;;1.92;;
70975;SDS011;58635;51.198;6.010;2023-03-23T14:49:14;4.57;;;1.63;;
70975;SDS011;58635;51.198;6.010;2023-03-23T14:51:49;6.35;;;2.03;;
70975;SDS011;58635;51.198;6.010;2023-03-23T14:54:19;7.53;;;2.20;;
70975;SDS011;58635;51.198;6.010;2023-03-23T14:56:47;8.63;;;2.38;;
70975;SDS011;58635;51.198;6.010;2023-03-23T14:59:12;6.55;;;2.10;;
70975;SDS011;58635;51.198;6.010;2023-03-23T15:01:38;5.63;;;2.08;;
70975;SDS011;58635;51.198;6.010;2023-03-23T15:06:36;7.18;;;2.30;;
70975;SDS011;58635;51.198;6.010;2023-03-23T15:09:13;6.75;;;2.33;;
70975;SDS011;58635;51.198;6.010;2023-03-23T15:11:53;7.22;;;2.08;;
70975;SDS011;58635;51.198;6.010;2023-03-23T15:14:36;8.80;;;2.05;;
70975;SDS011;58635;51.198;6.010;2023-03-23T15:17:11;6.55;;;2.10;;
70975;SDS011;58635;51.198;6.010;2023-03-23T15:19:47;6.20;;;2.03;;
70975;SDS011;58635;51.198;6.010;2023-03-23T15:22:25;7.10;;;2.20;;
70975;SDS011;58635;51.198;6.010;2023-03-23T15:25:01;7.80;;;2.00;;
70975;SDS011;58635;51.198;6.010;2023-03-23T15:27:33;5.72;;;2.35;;
70975;SDS011;58635;51.198;6.010;2023-03-23T15:30:15;6.80;;;2.00;;
70975;SDS011;58635;51.198;6.010;2023-03-23T15:32:53;6.45;;;2.25;;
70975;SDS011;58635;51.198;6.010;2023-03-23T15:35:24;5.75;;;2.03;;
70975;SDS011;58635;51.198;6.010;2023-03-23T15:37:53;7.88;;;1.88;;
70975;SDS011;58635;51.198;6.010;2023-03-23T15:40:26;7.03;;;2.50;;
70975;SDS011;58635;51.198;6.010;2023-03-23T15:43:17;8.85;;;2.35;;
70975;SDS011;58635;51.198;6.010;2023-03-23T15:51:17;5.80;;;2.10;;
70975;SDS011;58635;51.198;6.010;2023-03-23T15:53:44;5.82;;;2.03;;
70975;SDS011;58635;51.198;6.010;2023-03-23T15:56:10;6.95;;;1.65;;
70975;SDS011;58635;51.198;6.010;2023-03-23T15:58:37;8.75;;;2.40;;
70975;SDS011;58635;51.198;6.010;2023-03-23T16:01:07;5.63;;;1.83;;
70975;SDS011;58635;51.198;6.010;2023-03-23T16:06:09;8.50;;;2.33;;
70975;SDS011;58635;51.198;6.010;2023-03-23T16:08:36;6.13;;;1.92;;
70975;SDS011;58635;51.198;6.010;2023-03-23T16:11:05;7.25;;;2.20;;
70975;SDS011;58635;51.198;6.010;2023-03-23T16:13:32;6.38;;;2.10;;
70975;SDS011;58635;51.198;6.010;2023-03-23T16:15:57;5.75;;;2.13;;
70975;SDS011;58635;51.198;6.010;2023-03-23T16:18:23;8.18;;;2.53;;
70975;SDS011;58635;51.198;6.010;2023-03-23T16:20:48;6.30;;;3.00;;
70975;SDS011;58635;51.198;6.010;2023-03-23T16:23:14;7.65;;;2.38;;
70975;SDS011;58635;51.198;6.010;2023-03-23T16:25:40;6.68;;;2.65;;
70975;SDS011;58635;51.198;6.010;2023-03-23T16:28:07;8.90;;;2.47;;
70975;SDS011;58635;51.198;6.010;2023-03-23T16:30:35;7.00;;;1.92;;
70975;SDS011;58635;51.198;6.010;2023-03-23T16:33:02;5.03;;;2.08;;
70975;SDS011;58635;51.198;6.010;2023-03-23T16:35:28;5.80;;;2.30;;
70975;SDS011;58635;51.198;6.010;2023-03-23T16:37:54;6.95;;;2.00;;
70975;SDS011;58635;51.198;6.010;2023-03-23T16:40:21;8.00;;;2.40;;
70975;SDS011;58635;51.198;6.010;2023-03-23T16:42:47;7.63;;;2.10;;
70975;SDS011;58635;51.198;6.010;2023-03-23T16:45:14;6.22;;;2.22;;
70975;SDS011;58635;51.198;6.010;2023-03-23T16:47:40;7.13;;;2.38;;
70975;SDS011;58635;51.198;6.010;2023-03-23T16:50:07;6.22;;;2.05;;
70975;SDS011;58635;51.198;6.010;2023-03-23T16:52:38;5.22;;;1.60;;
70975;SDS011;58635;51.198;6.010;2023-03-23T16:55:05;5.95;;;2.00;;
70975;SDS011;58635;51.198;6.010;2023-03-23T16:57:32;6.22;;;2.13;;
70975;SDS011;58635;51.198;6.010;2023-03-23T17:00:01;7.63;;;2.10;;
70975;SDS011;58635;51.198;6.010;2023-03-23T17:02:36;4.55;;;1.75;;
70975;SDS011;58635;51.198;6.010;2023-03-23T17:05:02;7.28;;;2.20;;
70975;SDS011;58635;51.198;6.010;2023-03-23T17:07:27;7.05;;;2.10;;
70975;SDS011;58635;51.198;6.010;2023-03-23T17:09:53;4.72;;;1.92;;